createdAt,value
2023-01-08T00:00:21.378Z,4.64
2023-01-08T00:05:43.276Z,4.76
2023-01-08T00:11:05.253Z,4.47
2023-01-08T00:16:27.936Z,4.51
2023-01-08T00:21:49.835Z,4.34
2023-01-08T00:27:11.687Z,4.43
2023-01-08T00:32:33.523Z,4.56
2023-01-08T00:37:55.327Z,4.57
2023-01-08T00:43:17.163Z,4.46
2023-01-08T00:48:39.248Z,4.24
2023-01-08T00:54:01.136Z,4.32
2023-01-08T00:59:23.112Z,4.21
2023-01-08T01:04:44.910Z,4.16
2023-01-08T01:10:07.392Z,4.20
2023-01-08T01:15:29.246Z,4.15
2023-01-08T01:20:51.144Z,4.23
2023-01-08T01:26:20.946Z,4.20
2023-01-08T01:31:42.826Z,4.00
2023-01-08T01:37:04.691Z,4.16
2023-01-08T01:42:26.565Z,4.07
2023-01-08T01:48:02.212Z,4.13
2023-01-08T01:53:29.944Z,4.13
2023-01-08T01:58:51.752Z,4.11
2023-01-08T02:04:14.585Z,4.08
2023-01-08T02:09:48.413Z,4.00
2023-01-08T02:15:16.266Z,4.25
2023-01-08T02:20:43.942Z,4.21
2023-01-08T02:26:27.744Z,4.11
2023-01-08T02:31:50.152Z,3.97
2023-01-08T02:37:12.075Z,4.02
2023-01-08T02:42:55.839Z,3.77
2023-01-08T02:48:43.248Z,3.63
2023-01-08T02:54:09.595Z,3.40
2023-01-08T02:59:34.039Z,3.20
2023-01-08T03:05:03.571Z,3.11
2023-01-08T03:10:27.466Z,3.04
2023-01-08T03:15:56.334Z,2.92
2023-01-08T03:21:20.767Z,2.87
2023-01-08T03:26:45.567Z,2.84
2023-01-08T03:32:13.824Z,2.92
2023-01-08T03:37:40.717Z,3.00
2023-01-08T03:43:02.758Z,2.94
2023-01-08T03:48:27.226Z,2.88
2023-01-08T03:53:52.328Z,3.02
2023-01-08T03:59:15.366Z,2.93
2023-01-08T04:04:37.233Z,3.06
2023-01-08T04:09:59.065Z,2.94
2023-01-08T04:15:21.172Z,3.05
2023-01-08T04:20:47.620Z,3.00
2023-01-08T04:26:09.444Z,2.77
2023-01-08T04:31:31.668Z,2.87
2023-01-08T04:36:53.547Z,2.91
2023-01-08T04:42:15.413Z,2.90
2023-01-08T04:47:37.245Z,2.81
2023-01-08T04:52:59.392Z,2.98
2023-01-08T04:58:21.694Z,3.05
2023-01-08T05:03:43.514Z,2.99
2023-01-08T05:09:05.374Z,3.07
2023-01-08T05:14:27.235Z,2.99
2023-01-08T05:19:49.040Z,3.09
2023-01-08T05:25:10.952Z,3.11
2023-01-08T05:30:32.768Z,3.00
2023-01-08T05:35:54.757Z,3.02
2023-01-08T05:41:16.586Z,3.07
2023-01-08T05:46:38.473Z,3.04
2023-01-08T05:52:00.331Z,2.90
2023-01-08T05:57:22.162Z,2.93
2023-01-08T06:02:48.263Z,2.98
2023-01-08T06:08:10.222Z,3.00
2023-01-08T06:13:33.450Z,2.88
2023-01-08T06:18:55.323Z,3.06
2023-01-08T06:24:17.193Z,3.00
2023-01-08T06:29:39.038Z,3.21
2023-01-08T06:35:00.833Z,3.18
2023-01-08T06:40:23.891Z,3.05
2023-01-08T06:45:45.691Z,2.75
2023-01-08T06:51:07.588Z,2.69
2023-01-08T06:56:29.472Z,2.83
2023-01-08T07:01:51.586Z,2.61
2023-01-08T07:07:14.672Z,2.59
2023-01-08T07:12:36.548Z,2.57
2023-01-08T07:17:58.365Z,2.57
2023-01-08T07:23:20.219Z,2.56
2023-01-08T07:28:42.257Z,2.57
2023-01-08T07:34:04.106Z,2.80
2023-01-08T07:39:25.942Z,2.89
2023-01-08T07:44:47.764Z,2.67
2023-01-08T07:50:09.776Z,2.76
2023-01-08T07:55:31.747Z,2.82
2023-01-08T08:00:53.974Z,2.89
2023-01-08T08:06:15.804Z,2.94
2023-01-08T08:11:37.656Z,2.88
2023-01-08T08:17:00.959Z,2.90
2023-01-08T08:22:22.894Z,2.94
2023-01-08T08:27:45.145Z,3.05
2023-01-08T08:33:07.251Z,3.11
2023-01-08T08:38:29.063Z,3.05
2023-01-08T08:43:50.914Z,3.27
2023-01-08T08:49:12.752Z,3.38
2023-01-08T08:54:34.674Z,3.44
2023-01-08T08:59:56.543Z,3.23
2023-01-08T09:05:18.423Z,3.55
2023-01-08T09:10:40.824Z,3.36
2023-01-08T09:16:02.780Z,3.27
2023-01-08T09:21:24.690Z,3.54
2023-01-08T09:26:46.534Z,3.61
2023-01-08T09:32:08.765Z,3.49
2023-01-08T09:37:30.772Z,3.47
2023-01-08T09:43:00.197Z,3.69
2023-01-08T09:48:28.441Z,3.80
2023-01-08T09:53:55.548Z,3.85
2023-01-08T09:59:18.402Z,3.80
2023-01-08T10:04:41.539Z,4.06
2023-01-08T10:10:03.566Z,4.18
2023-01-08T10:15:26.127Z,3.85
2023-01-08T10:20:47.997Z,4.28
2023-01-08T10:26:09.804Z,4.32
2023-01-08T10:31:32.421Z,4.41
2023-01-08T10:36:55.145Z,4.21
2023-01-08T10:42:19.447Z,4.08
2023-01-08T10:47:47.934Z,4.11
2023-01-08T10:53:28.837Z,3.77
2023-01-08T10:58:51.486Z,3.81
2023-01-08T11:04:23.916Z,4.03
2023-01-08T11:09:48.405Z,3.64
2023-01-08T11:15:16.177Z,4.00
2023-01-08T11:20:39.128Z,3.91
2023-01-08T11:26:04.111Z,4.03
2023-01-08T11:31:39.965Z,3.80
2023-01-08T11:37:11.602Z,3.82
2023-01-08T11:42:59.365Z,3.93
2023-01-08T11:48:34.150Z,4.01
2023-01-08T11:54:14.513Z,3.63
2023-01-08T11:59:36.328Z,4.03
2023-01-08T12:05:04.033Z,3.92
2023-01-08T12:10:49.561Z,3.63
2023-01-08T12:16:35.559Z,3.52
2023-01-08T12:22:09.448Z,3.61
2023-01-08T12:28:22.112Z,3.68
2023-01-08T12:33:56.124Z,3.66
2023-01-08T12:39:27.012Z,3.72
2023-01-08T12:44:48.893Z,3.95
2023-01-08T12:50:21.420Z,3.54
2023-01-08T12:56:02.888Z,3.69
2023-01-08T13:01:27.834Z,3.63
2023-01-08T13:07:18.376Z,3.69
2023-01-08T13:12:41.121Z,3.47
2023-01-08T13:18:15.751Z,3.57
2023-01-08T13:23:37.648Z,3.37
2023-01-08T13:29:39.280Z,3.23
2023-01-08T13:35:12.788Z,3.35
2023-01-08T13:40:44.721Z,3.41
2023-01-08T13:46:17.924Z,3.08
2023-01-08T13:51:43.409Z,3.10
2023-01-08T13:57:17.208Z,3.11
2023-01-08T14:02:46.506Z,3.19
2023-01-08T14:08:21.936Z,3.22
2023-01-08T14:13:44.200Z,3.05
2023-01-08T14:19:06.341Z,3.14
2023-01-08T14:24:28.442Z,3.05
2023-01-08T14:29:50.428Z,3.11
2023-01-08T14:35:17.711Z,3.15
2023-01-08T14:40:43.579Z,3.07
2023-01-08T14:46:27.624Z,2.75
2023-01-08T14:51:51.308Z,2.96
2023-01-08T14:57:14.511Z,3.01
2023-01-08T15:02:37.890Z,3.05
2023-01-08T15:08:24.256Z,3.01
2023-01-08T15:13:48.068Z,2.90
2023-01-08T15:19:18.274Z,2.85
2023-01-08T15:24:40.141Z,2.81
2023-01-08T15:30:02.750Z,2.88
2023-01-08T15:35:24.603Z,2.91
2023-01-08T15:40:47.212Z,2.98
2023-01-08T15:46:11.665Z,3.03
2023-01-08T15:51:35.890Z,2.93
2023-01-08T15:56:57.756Z,2.78
2023-01-08T16:02:19.815Z,2.83
2023-01-08T16:07:41.799Z,2.94
2023-01-08T16:13:04.420Z,2.95
2023-01-08T16:18:26.301Z,2.60
2023-01-08T16:23:48.160Z,2.88
2023-01-08T16:29:10.030Z,2.86
2023-01-08T16:34:31.882Z,2.77
2023-01-08T16:39:53.757Z,2.87
2023-01-08T16:45:15.659Z,2.87
2023-01-08T16:50:37.505Z,2.85
2023-01-08T16:55:59.990Z,2.94
2023-01-08T17:01:22.157Z,2.99
2023-01-08T17:06:44.127Z,2.81
2023-01-08T17:12:06.336Z,2.75
2023-01-08T17:17:28.175Z,3.01
2023-01-08T17:22:50.042Z,3.12
2023-01-08T17:28:11.889Z,2.92
2023-01-08T17:33:34.612Z,2.96
2023-01-08T17:38:56.493Z,3.06
2023-01-08T17:44:18.354Z,3.05
2023-01-08T17:49:40.244Z,3.10
2023-01-08T17:55:02.195Z,3.04
2023-01-08T18:00:24.064Z,3.06
2023-01-08T18:05:45.898Z,3.00
2023-01-08T18:11:09.518Z,3.23
2023-01-08T18:16:32.879Z,3.12
2023-01-08T18:21:54.701Z,3.07
2023-01-08T18:27:16.571Z,2.86
2023-01-08T18:32:38.487Z,3.12
2023-01-08T18:38:00.331Z,2.96
2023-01-08T18:43:22.211Z,2.98
2023-01-08T18:48:44.065Z,3.23
2023-01-08T18:54:06.106Z,3.21
2023-01-08T18:59:28.234Z,3.31
2023-01-08T19:04:52.299Z,3.26
2023-01-08T19:10:14.731Z,3.33
2023-01-08T19:15:36.841Z,3.23
2023-01-08T19:21:00.089Z,3.36
2023-01-08T19:26:22.302Z,3.40
2023-01-08T19:31:44.244Z,3.48
2023-01-08T19:37:06.189Z,3.53
2023-01-08T19:42:28.858Z,3.63
2023-01-08T19:47:51.449Z,3.58
2023-01-08T19:53:15.459Z,3.65
2023-01-08T19:58:37.699Z,3.60
2023-01-08T20:03:59.622Z,3.70
2023-01-08T20:09:22.231Z,3.44
2023-01-08T20:14:44.087Z,3.61
2023-01-08T20:20:06.758Z,3.37
2023-01-08T20:25:28.856Z,3.58
2023-01-08T20:30:51.095Z,3.50
2023-01-08T20:36:14.431Z,3.35
2023-01-08T20:41:36.328Z,3.36
2023-01-08T20:46:58.180Z,3.47
2023-01-08T20:52:20.369Z,3.55
2023-01-08T20:57:42.508Z,3.39
2023-01-08T21:03:04.356Z,3.52
2023-01-08T21:08:26.299Z,3.24
2023-01-08T21:13:48.207Z,3.34
2023-01-08T21:19:10.605Z,3.46
2023-01-08T21:24:32.532Z,3.42
2023-01-08T21:29:54.426Z,3.67
2023-01-08T21:35:16.399Z,3.47
2023-01-08T21:40:38.860Z,3.55
2023-01-08T21:46:01.745Z,3.70
2023-01-08T21:51:23.623Z,3.62
2023-01-08T21:56:45.510Z,3.60
2023-01-08T22:02:07.678Z,3.57
2023-01-08T22:07:29.648Z,3.62
2023-01-08T22:12:51.501Z,3.65
2023-01-08T22:18:13.698Z,3.68
2023-01-08T22:23:36.360Z,3.49
2023-01-08T22:28:58.228Z,3.66
2023-01-08T22:34:20.100Z,3.73
2023-01-08T22:39:41.913Z,3.75
2023-01-08T22:45:04.276Z,3.67
2023-01-08T22:50:26.187Z,3.81
2023-01-08T22:55:48.137Z,3.56
2023-01-08T23:01:12.212Z,3.71
2023-01-08T23:06:34.476Z,3.53
2023-01-08T23:11:56.296Z,3.54
2023-01-08T23:17:18.115Z,3.59
2023-01-08T23:22:40.366Z,3.51
2023-01-08T23:28:02.236Z,3.65
2023-01-08T23:33:24.093Z,3.44
2023-01-08T23:38:47.254Z,3.44
2023-01-08T23:44:13.967Z,3.78
2023-01-08T23:49:35.816Z,3.63
2023-01-08T23:54:57.638Z,3.49
